sensor_id;sensor_type;location;lat;lon;timestamp;temperature;humidity
18690;DHT22;9782;52.930;15.562;2022-10-18T00:00:36;14.20;1.00
18690;DHT22;9782;52.930;15.562;2022-10-18T00:03:03;14.20;1.00
18690;DHT22;9782;52.930;15.562;2022-10-18T00:05:30;14.20;1.00
18690;DHT22;9782;52.930;15.562;2022-10-18T00:07:58;14.10;1.00
18690;DHT22;9782;52.930;15.562;2022-10-18T00:10:25;14.10;1.00
18690;DHT22;9782;52.930;15.562;2022-10-18T00:12:52;14.00;1.00
18690;DHT22;9782;52.930;15.562;2022-10-18T00:15:20;14.10;1.00
18690;DHT22;9782;52.930;15.562;2022-10-18T00:17:47;14.00;1.00
18690;DHT22;9782;52.930;15.562;2022-10-18T00:20:14;14.00;1.00
18690;DHT22;9782;52.930;15.562;2022-10-18T00:22:41;14.00;1.00
18690;DHT22;9782;52.930;15.562;2022-10-18T00:25:08;13.90;1.00
18690;DHT22;9782;52.930;15.562;2022-10-18T00:27:36;13.90;1.00
18690;DHT22;9782;52.930;15.562;2022-10-18T00:30:03;13.80;1.00
18690;DHT22;9782;52.930;15.562;2022-10-18T00:32:35;13.80;1.00
18690;DHT22;9782;52.930;15.562;2022-10-18T00:35:03;13.80;1.00
18690;DHT22;9782;52.930;15.562;2022-10-18T00:37:30;13.80;1.00
18690;DHT22;9782;52.930;15.562;2022-10-18T00:39:57;13.80;1.00
18690;DHT22;9782;52.930;15.562;2022-10-18T00:42:29;13.80;1.00
18690;DHT22;9782;52.930;15.562;2022-10-18T00:45:13;13.80;1.00
18690;DHT22;9782;52.930;15.562;2022-10-18T00:47:44;13.80;1.00
18690;DHT22;9782;52.930;15.562;2022-10-18T00:50:12;13.70;1.00
18690;DHT22;9782;52.930;15.562;2022-10-18T00:52:41;13.70;1.00
18690;DHT22;9782;52.930;15.562;2022-10-18T00:55:09;13.70;1.00
18690;DHT22;9782;52.930;15.562;2022-10-18T00:57:37;13.70;1.00
18690;DHT22;9782;52.930;15.562;2022-10-18T01:00:07;13.70;1.00
18690;DHT22;9782;52.930;15.562;2022-10-18T01:02:35;13.70;25.10
18690;DHT22;9782;52.930;15.562;2022-10-18T01:05:04;13.60;1.00
18690;DHT22;9782;52.930;15.562;2022-10-18T01:07:48;13.70;99.90
18690;DHT22;9782;52.930;15.562;2022-10-18T01:10:25;13.70;99.90
18690;DHT22;9782;52.930;15.562;2022-10-18T01:13:05;13.70;17.00
18690;DHT22;9782;52.930;15.562;2022-10-18T01:15:39;13.80;1.00
18690;DHT22;9782;52.930;15.562;2022-10-18T01:18:13;13.80;42.30
18690;DHT22;9782;52.930;15.562;2022-10-18T01:21:01;13.70;99.90
18690;DHT22;9782;52.930;15.562;2022-10-18T01:23:44;13.70;79.50
18690;DHT22;9782;52.930;15.562;2022-10-18T01:26:25;13.80;99.90
18690;DHT22;9782;52.930;15.562;2022-10-18T01:29:01;13.80;99.90
18690;DHT22;9782;52.930;15.562;2022-10-18T01:31:39;13.80;54.80
18690;DHT22;9782;52.930;15.562;2022-10-18T01:34:10;13.80;99.90
18690;DHT22;9782;52.930;15.562;2022-10-18T01:36:40;13.80;99.90
18690;DHT22;9782;52.930;15.562;2022-10-18T01:39:12;13.80;99.90
18690;DHT22;9782;52.930;15.562;2022-10-18T01:41:42;13.80;99.90
18690;DHT22;9782;52.930;15.562;2022-10-18T01:44:20;13.90;99.50
18690;DHT22;9782;52.930;15.562;2022-10-18T01:46:51;13.90;99.90
18690;DHT22;9782;52.930;15.562;2022-10-18T01:49:20;13.90;99.90
18690;DHT22;9782;52.930;15.562;2022-10-18T01:51:47;13.90;99.90
18690;DHT22;9782;52.930;15.562;2022-10-18T01:54:18;14.00;99.90
18690;DHT22;9782;52.930;15.562;2022-10-18T01:56:53;14.00;99.90
18690;DHT22;9782;52.930;15.562;2022-10-18T01:59:36;14.00;99.90
18690;DHT22;9782;52.930;15.562;2022-10-18T02:02:15;14.00;99.90
18690;DHT22;9782;52.930;15.562;2022-10-18T02:05:05;14.00;99.90
18690;DHT22;9782;52.930;15.562;2022-10-18T02:08:15;14.10;99.90
18690;DHT22;9782;52.930;15.562;2022-10-18T02:11:03;14.10;1.00
18690;DHT22;9782;52.930;15.562;2022-10-18T02:14:04;14.10;1.00
18690;DHT22;9782;52.930;15.562;2022-10-18T02:17:19;14.10;1.00
18690;DHT22;9782;52.930;15.562;2022-10-18T02:20:29;14.20;1.00
18690;DHT22;9782;52.930;15.562;2022-10-18T02:22:58;14.20;1.00
18690;DHT22;9782;52.930;15.562;2022-10-18T02:25:29;14.20;1.00
18690;DHT22;9782;52.930;15.562;2022-10-18T02:27:57;14.30;1.00
18690;DHT22;9782;52.930;15.562;2022-10-18T02:30:30;14.30;1.00
18690;DHT22;9782;52.930;15.562;2022-10-18T02:33:04;14.30;99.90
18690;DHT22;9782;52.930;15.562;2022-10-18T02:35:35;14.30;1.00
18690;DHT22;9782;52.930;15.562;2022-10-18T02:38:04;14.40;1.00
18690;DHT22;9782;52.930;15.562;2022-10-18T02:40:33;14.40;1.00
18690;DHT22;9782;52.930;15.562;2022-10-18T02:43:00;14.50;1.00
18690;DHT22;9782;52.930;15.562;2022-10-18T02:45:27;14.40;1.00
18690;DHT22;9782;52.930;15.562;2022-10-18T02:47:54;14.40;99.90
18690;DHT22;9782;52.930;15.562;2022-10-18T02:50:22;14.40;99.90
18690;DHT22;9782;52.930;15.562;2022-10-18T02:52:49;14.40;99.90
18690;DHT22;9782;52.930;15.562;2022-10-18T02:55:17;14.40;1.00
18690;DHT22;9782;52.930;15.562;2022-10-18T02:57:44;14.40;99.90
18690;DHT22;9782;52.930;15.562;2022-10-18T03:00:12;14.50;1.00
18690;DHT22;9782;52.930;15.562;2022-10-18T03:02:39;14.50;1.00
18690;DHT22;9782;52.930;15.562;2022-10-18T03:05:06;14.50;1.00
18690;DHT22;9782;52.930;15.562;2022-10-18T03:07:35;14.50;1.00
18690;DHT22;9782;52.930;15.562;2022-10-18T03:10:02;14.60;1.00
18690;DHT22;9782;52.930;15.562;2022-10-18T03:12:29;14.50;1.00
18690;DHT22;9782;52.930;15.562;2022-10-18T03:14:56;14.60;1.00
18690;DHT22;9782;52.930;15.562;2022-10-18T03:17:24;14.60;1.00
18690;DHT22;9782;52.930;15.562;2022-10-18T03:19:52;14.60;1.00
18690;DHT22;9782;52.930;15.562;2022-10-18T03:22:19;14.60;1.00
18690;DHT22;9782;52.930;15.562;2022-10-18T03:24:48;14.60;1.00
18690;DHT22;9782;52.930;15.562;2022-10-18T03:27:15;14.60;1.00
18690;DHT22;9782;52.930;15.562;2022-10-18T03:29:42;14.60;1.00
18690;DHT22;9782;52.930;15.562;2022-10-18T03:32:09;14.60;1.00
18690;DHT22;9782;52.930;15.562;2022-10-18T03:34:36;14.60;1.00
18690;DHT22;9782;52.930;15.562;2022-10-18T03:37:03;14.60;1.00
18690;DHT22;9782;52.930;15.562;2022-10-18T03:39:30;14.60;1.00
18690;DHT22;9782;52.930;15.562;2022-10-18T03:41:58;14.60;1.00
18690;DHT22;9782;52.930;15.562;2022-10-18T03:44:25;14.60;1.00
18690;DHT22;9782;52.930;15.562;2022-10-18T03:46:52;14.60;1.00
18690;DHT22;9782;52.930;15.562;2022-10-18T03:49:19;14.50;1.00
18690;DHT22;9782;52.930;15.562;2022-10-18T03:51:46;14.50;1.00
18690;DHT22;9782;52.930;15.562;2022-10-18T03:54:13;14.50;1.00
18690;DHT22;9782;52.930;15.562;2022-10-18T03:56:40;14.50;1.00
18690;DHT22;9782;52.930;15.562;2022-10-18T03:59:09;14.50;1.00
18690;DHT22;9782;52.930;15.562;2022-10-18T04:01:36;14.50;1.00
18690;DHT22;9782;52.930;15.562;2022-10-18T04:04:03;14.50;1.00
18690;DHT22;9782;52.930;15.562;2022-10-18T04:06:30;14.50;1.00
18690;DHT22;9782;52.930;15.562;2022-10-18T04:08:57;14.50;99.90
18690;DHT22;9782;52.930;15.562;2022-10-18T04:11:24;14.50;1.00
18690;DHT22;9782;52.930;15.562;2022-10-18T04:13:51;14.50;99.90
18690;DHT22;9782;52.930;15.562;2022-10-18T04:16:19;14.50;1.00
18690;DHT22;9782;52.930;15.562;2022-10-18T04:18:46;14.40;1.00
18690;DHT22;9782;52.930;15.562;2022-10-18T04:21:13;14.40;1.00
18690;DHT22;9782;52.930;15.562;2022-10-18T04:23:41;14.40;1.00
18690;DHT22;9782;52.930;15.562;2022-10-18T04:26:08;14.40;1.00
18690;DHT22;9782;52.930;15.562;2022-10-18T04:28:35;14.40;1.00
18690;DHT22;9782;52.930;15.562;2022-10-18T04:31:05;14.40;1.00
18690;DHT22;9782;52.930;15.562;2022-10-18T04:33:34;14.40;1.00
18690;DHT22;9782;52.930;15.562;2022-10-18T04:36:01;14.40;1.00
18690;DHT22;9782;52.930;15.562;2022-10-18T04:38:28;14.40;1.00
18690;DHT22;9782;52.930;15.562;2022-10-18T04:40:55;14.40;1.00
18690;DHT22;9782;52.930;15.562;2022-10-18T04:43:22;14.40;99.90
18690;DHT22;9782;52.930;15.562;2022-10-18T04:45:49;14.40;99.90
18690;DHT22;9782;52.930;15.562;2022-10-18T04:48:17;14.50;99.90
18690;DHT22;9782;52.930;15.562;2022-10-18T04:50:48;14.50;1.00
18690;DHT22;9782;52.930;15.562;2022-10-18T04:53:17;14.40;99.90
18690;DHT22;9782;52.930;15.562;2022-10-18T04:55:44;14.50;1.00
18690;DHT22;9782;52.930;15.562;2022-10-18T04:58:12;14.40;99.90
18690;DHT22;9782;52.930;15.562;2022-10-18T05:00:39;14.50;1.00
18690;DHT22;9782;52.930;15.562;2022-10-18T05:03:07;14.50;99.90
18690;DHT22;9782;52.930;15.562;2022-10-18T05:05:35;14.40;99.90
18690;DHT22;9782;52.930;15.562;2022-10-18T05:08:05;14.40;99.90
18690;DHT22;9782;52.930;15.562;2022-10-18T05:10:32;14.40;1.00
18690;DHT22;9782;52.930;15.562;2022-10-18T05:12:59;14.40;99.90
18690;DHT22;9782;52.930;15.562;2022-10-18T05:15:26;14.40;99.90
18690;DHT22;9782;52.930;15.562;2022-10-18T05:17:53;14.40;99.90
18690;DHT22;9782;52.930;15.562;2022-10-18T05:20:20;14.40;1.00
18690;DHT22;9782;52.930;15.562;2022-10-18T05:22:47;14.40;1.00
18690;DHT22;9782;52.930;15.562;2022-10-18T05:25:16;14.40;1.00
18690;DHT22;9782;52.930;15.562;2022-10-18T05:27:43;14.40;1.00
18690;DHT22;9782;52.930;15.562;2022-10-18T05:30:10;14.40;1.00
18690;DHT22;9782;52.930;15.562;2022-10-18T05:32:37;14.40;1.00
18690;DHT22;9782;52.930;15.562;2022-10-18T05:35:05;14.50;1.00
18690;DHT22;9782;52.930;15.562;2022-10-18T05:37:32;14.50;99.90
18690;DHT22;9782;52.930;15.562;2022-10-18T05:39:59;14.50;99.90
18690;DHT22;9782;52.930;15.562;2022-10-18T05:42:27;14.50;1.00
18690;DHT22;9782;52.930;15.562;2022-10-18T05:44:54;14.60;99.90
18690;DHT22;9782;52.930;15.562;2022-10-18T05:47:21;14.60;1.00
18690;DHT22;9782;52.930;15.562;2022-10-18T05:49:48;14.60;1.00
18690;DHT22;9782;52.930;15.562;2022-10-18T05:52:15;14.60;1.00
18690;DHT22;9782;52.930;15.562;2022-10-18T05:54:42;14.70;1.00
18690;DHT22;9782;52.930;15.562;2022-10-18T05:57:09;14.70;99.90
18690;DHT22;9782;52.930;15.562;2022-10-18T05:59:38;14.70;99.90
18690;DHT22;9782;52.930;15.562;2022-10-18T06:02:05;14.70;1.00
18690;DHT22;9782;52.930;15.562;2022-10-18T06:04:32;14.70;1.00
18690;DHT22;9782;52.930;15.562;2022-10-18T06:06:59;14.70;1.00
18690;DHT22;9782;52.930;15.562;2022-10-18T06:09:27;14.70;1.00
18690;DHT22;9782;52.930;15.562;2022-10-18T06:11:55;14.70;1.00
18690;DHT22;9782;52.930;15.562;2022-10-18T06:14:25;14.70;1.00
18690;DHT22;9782;52.930;15.562;2022-10-18T06:17:09;14.70;1.00
18690;DHT22;9782;52.930;15.562;2022-10-18T06:22:43;14.80;1.00
18690;DHT22;9782;52.930;15.562;2022-10-18T06:25:16;14.80;1.00
18690;DHT22;9782;52.930;15.562;2022-10-18T06:27:47;14.80;1.00
18690;DHT22;9782;52.930;15.562;2022-10-18T06:30:28;14.80;1.00
18690;DHT22;9782;52.930;15.562;2022-10-18T06:33:01;14.80;1.00
18690;DHT22;9782;52.930;15.562;2022-10-18T06:35:43;14.80;1.00
18690;DHT22;9782;52.930;15.562;2022-10-18T06:38:31;14.80;1.00
18690;DHT22;9782;52.930;15.562;2022-10-18T06:41:11;14.80;1.00
18690;DHT22;9782;52.930;15.562;2022-10-18T06:43:50;14.90;1.00
18690;DHT22;9782;52.930;15.562;2022-10-18T06:46:23;14.90;99.90
18690;DHT22;9782;52.930;15.562;2022-10-18T06:48:52;14.90;1.00
18690;DHT22;9782;52.930;15.562;2022-10-18T06:51:23;14.90;1.00
18690;DHT22;9782;52.930;15.562;2022-10-18T06:53:53;14.90;76.00
18690;DHT22;9782;52.930;15.562;2022-10-18T06:56:39;14.90;1.00
18690;DHT22;9782;52.930;15.562;2022-10-18T06:59:44;14.90;1.00
18690;DHT22;9782;52.930;15.562;2022-10-18T07:02:21;14.90;99.90
18690;DHT22;9782;52.930;15.562;2022-10-18T07:08:03;15.00;99.90
18690;DHT22;9782;52.930;15.562;2022-10-18T07:10:49;15.00;99.90
18690;DHT22;9782;52.930;15.562;2022-10-18T07:13:30;15.00;99.00
18690;DHT22;9782;52.930;15.562;2022-10-18T07:16:19;15.10;99.90
18690;DHT22;9782;52.930;15.562;2022-10-18T07:19:05;15.10;98.10
18690;DHT22;9782;52.930;15.562;2022-10-18T07:21:44;15.10;99.90
18690;DHT22;9782;52.930;15.562;2022-10-18T07:27:10;15.20;99.90
18690;DHT22;9782;52.930;15.562;2022-10-18T07:29:47;15.30;99.90
18690;DHT22;9782;52.930;15.562;2022-10-18T07:32:36;15.30;99.90
18690;DHT22;9782;52.930;15.562;2022-10-18T07:35:13;15.40;99.90
18690;DHT22;9782;52.930;15.562;2022-10-18T07:37:43;15.40;1.00
18690;DHT22;9782;52.930;15.562;2022-10-18T07:40:15;15.40;1.00
18690;DHT22;9782;52.930;15.562;2022-10-18T07:42:51;15.40;99.90
18690;DHT22;9782;52.930;15.562;2022-10-18T07:45:22;15.50;99.90
18690;DHT22;9782;52.930;15.562;2022-10-18T07:47:59;15.50;99.90
18690;DHT22;9782;52.930;15.562;2022-10-18T07:50:31;15.50;99.90
18690;DHT22;9782;52.930;15.562;2022-10-18T07:56:17;15.60;99.90
18690;DHT22;9782;52.930;15.562;2022-10-18T07:58:48;15.60;99.90
18690;DHT22;9782;52.930;15.562;2022-10-18T08:01:22;15.60;99.90
18690;DHT22;9782;52.930;15.562;2022-10-18T08:04:01;15.60;99.90
18690;DHT22;9782;52.930;15.562;2022-10-18T08:06:38;15.60;99.90
18690;DHT22;9782;52.930;15.562;2022-10-18T08:09:12;15.70;1.00
18690;DHT22;9782;52.930;15.562;2022-10-18T08:11:45;15.70;99.90
18690;DHT22;9782;52.930;15.562;2022-10-18T08:17:45;15.80;99.90
18690;DHT22;9782;52.930;15.562;2022-10-18T08:20:18;15.80;1.00
18690;DHT22;9782;52.930;15.562;2022-10-18T08:22:49;15.90;1.00
18690;DHT22;9782;52.930;15.562;2022-10-18T08:25:31;16.00;14.90
18690;DHT22;9782;52.930;15.562;2022-10-18T08:28:04;16.00;99.90
18690;DHT22;9782;52.930;15.562;2022-10-18T08:30:46;16.10;99.90
18690;DHT22;9782;52.930;15.562;2022-10-18T08:33:16;16.10;1.00
18690;DHT22;9782;52.930;15.562;2022-10-18T08:35:55;16.20;1.00
18690;DHT22;9782;52.930;15.562;2022-10-18T08:38:23;16.30;2.40
18690;DHT22;9782;52.930;15.562;2022-10-18T08:40:50;16.20;99.90
18690;DHT22;9782;52.930;15.562;2022-10-18T08:43:25;16.20;1.00
18690;DHT22;9782;52.930;15.562;2022-10-18T08:45:54;16.20;1.00
18690;DHT22;9782;52.930;15.562;2022-10-18T08:48:32;16.20;1.00
18690;DHT22;9782;52.930;15.562;2022-10-18T08:51:03;16.20;1.00
18690;DHT22;9782;52.930;15.562;2022-10-18T08:53:50;16.20;1.00
18690;DHT22;9782;52.930;15.562;2022-10-18T08:56:53;16.20;79.30
18690;DHT22;9782;52.930;15.562;2022-10-18T08:59:38;16.20;99.90
18690;DHT22;9782;52.930;15.562;2022-10-18T09:02:28;16.30;53.70
18690;DHT22;9782;52.930;15.562;2022-10-18T09:05:18;16.30;99.90
18690;DHT22;9782;52.930;15.562;2022-10-18T09:11:09;16.30;1.00
18690;DHT22;9782;52.930;15.562;2022-10-18T09:14:23;16.40;1.00
18690;DHT22;9782;52.930;15.562;2022-10-18T09:17:09;16.40;99.90
18690;DHT22;9782;52.930;15.562;2022-10-18T09:20:02;16.50;99.90
18690;DHT22;9782;52.930;15.562;2022-10-18T09:22:46;16.50;99.90
18690;DHT22;9782;52.930;15.562;2022-10-18T09:25:31;16.60;99.90
18690;DHT22;9782;52.930;15.562;2022-10-18T09:28:35;16.60;99.90
18690;DHT22;9782;52.930;15.562;2022-10-18T09:31:27;16.60;1.00
18690;DHT22;9782;52.930;15.562;2022-10-18T09:34:27;16.60;1.00
18690;DHT22;9782;52.930;15.562;2022-10-18T09:42:24;16.60;99.90
18690;DHT22;9782;52.930;15.562;2022-10-18T09:46:48;16.70;60.80
18690;DHT22;9782;52.930;15.562;2022-10-18T09:47:59;16.70;1.00
18690;DHT22;9782;52.930;15.562;2022-10-18T09:54:52;16.70;1.00
18690;DHT22;9782;52.930;15.562;2022-10-18T09:57:45;16.70;1.00
18690;DHT22;9782;52.930;15.562;2022-10-18T10:00:17;16.80;1.00
18690;DHT22;9782;52.930;15.562;2022-10-18T10:03:06;16.80;1.00
18690;DHT22;9782;52.930;15.562;2022-10-18T10:06:42;16.80;1.00
18690;DHT22;9782;52.930;15.562;2022-10-18T10:13:35;16.90;1.00
18690;DHT22;9782;52.930;15.562;2022-10-18T10:18:23;16.90;84.50
18690;DHT22;9782;52.930;15.562;2022-10-18T10:32:46;17.30;1.00
18690;DHT22;9782;52.930;15.562;2022-10-18T10:35:29;17.40;1.00
18690;DHT22;9782;52.930;15.562;2022-10-18T10:37:57;17.40;1.00
18690;DHT22;9782;52.930;15.562;2022-10-18T10:40:25;17.40;1.00
18690;DHT22;9782;52.930;15.562;2022-10-18T10:43:04;17.50;1.00
18690;DHT22;9782;52.930;15.562;2022-10-18T10:45:34;17.50;1.00
18690;DHT22;9782;52.930;15.562;2022-10-18T10:48:15;17.50;1.00
18690;DHT22;9782;52.930;15.562;2022-10-18T10:50:54;17.50;1.00
18690;DHT22;9782;52.930;15.562;2022-10-18T10:53:38;17.50;1.00
18690;DHT22;9782;52.930;15.562;2022-10-18T10:56:20;17.40;99.90
18690;DHT22;9782;52.930;15.562;2022-10-18T10:59:09;17.40;99.90
18690;DHT22;9782;52.930;15.562;2022-10-18T11:01:44;17.40;99.90
18690;DHT22;9782;52.930;15.562;2022-10-18T11:04:42;17.40;1.00
18690;DHT22;9782;52.930;15.562;2022-10-18T11:07:24;17.40;1.00
18690;DHT22;9782;52.930;15.562;2022-10-18T11:10:12;17.40;1.00
18690;DHT22;9782;52.930;15.562;2022-10-18T11:13:00;17.40;1.00
18690;DHT22;9782;52.930;15.562;2022-10-18T11:15:33;17.40;1.00
18690;DHT22;9782;52.930;15.562;2022-10-18T11:18:07;17.40;1.00
18690;DHT22;9782;52.930;15.562;2022-10-18T11:20:46;17.30;99.90
18690;DHT22;9782;52.930;15.562;2022-10-18T11:24:42;17.30;99.90
18690;DHT22;9782;52.930;15.562;2022-10-18T11:30:43;17.10;1.00
18690;DHT22;9782;52.930;15.562;2022-10-18T11:44:03;16.70;1.00
18690;DHT22;9782;52.930;15.562;2022-10-18T11:47:09;16.60;1.00
18690;DHT22;9782;52.930;15.562;2022-10-18T11:50:16;16.60;1.00
18690;DHT22;9782;52.930;15.562;2022-10-18T11:56:45;16.50;1.00
18690;DHT22;9782;52.930;15.562;2022-10-18T11:59:52;16.50;1.00
18690;DHT22;9782;52.930;15.562;2022-10-18T12:06:13;16.30;1.00
18690;DHT22;9782;52.930;15.562;2022-10-18T12:08:54;16.30;1.00
18690;DHT22;9782;52.930;15.562;2022-10-18T12:11:34;16.20;1.00
18690;DHT22;9782;52.930;15.562;2022-10-18T12:28:23;15.90;1.00
18690;DHT22;9782;52.930;15.562;2022-10-18T12:31:13;15.80;1.00
18690;DHT22;9782;52.930;15.562;2022-10-18T12:34:24;15.80;1.00
18690;DHT22;9782;52.930;15.562;2022-10-18T12:43:38;15.70;99.90
18690;DHT22;9782;52.930;15.562;2022-10-18T12:59:40;15.50;1.00
18690;DHT22;9782;52.930;15.562;2022-10-18T13:02:26;15.50;1.00
18690;DHT22;9782;52.930;15.562;2022-10-18T13:04:54;15.50;1.00
18690;DHT22;9782;52.930;15.562;2022-10-18T13:07:37;15.50;1.00
18690;DHT22;9782;52.930;15.562;2022-10-18T13:10:37;15.50;99.90
18690;DHT22;9782;52.930;15.562;2022-10-18T13:13:33;15.40;99.90
18690;DHT22;9782;52.930;15.562;2022-10-18T13:16:20;15.50;22.70
18690;DHT22;9782;52.930;15.562;2022-10-18T13:18:53;15.40;1.00
18690;DHT22;9782;52.930;15.562;2022-10-18T13:21:31;15.40;99.90
18690;DHT22;9782;52.930;15.562;2022-10-18T13:24:29;15.40;1.00
18690;DHT22;9782;52.930;15.562;2022-10-18T13:27:40;15.40;3.40
18690;DHT22;9782;52.930;15.562;2022-10-18T13:30:24;15.40;99.90
18690;DHT22;9782;52.930;15.562;2022-10-18T13:33:16;15.40;99.90
18690;DHT22;9782;52.930;15.562;2022-10-18T13:35:57;15.40;99.90
18690;DHT22;9782;52.930;15.562;2022-10-18T13:38:46;15.40;1.00
18690;DHT22;9782;52.930;15.562;2022-10-18T13:41:21;15.50;99.90
18690;DHT22;9782;52.930;15.562;2022-10-18T13:44:22;15.50;99.90
18690;DHT22;9782;52.930;15.562;2022-10-18T13:47:37;15.60;99.90
18690;DHT22;9782;52.930;15.562;2022-10-18T13:50:29;15.60;99.90
18690;DHT22;9782;52.930;15.562;2022-10-18T13:53:24;15.60;99.90
18690;DHT22;9782;52.930;15.562;2022-10-18T13:59:39;15.80;99.90
18690;DHT22;9782;52.930;15.562;2022-10-18T14:02:35;15.80;1.00
18690;DHT22;9782;52.930;15.562;2022-10-18T14:05:35;15.90;1.00
18690;DHT22;9782;52.930;15.562;2022-10-18T14:08:11;15.90;38.20
18690;DHT22;9782;52.930;15.562;2022-10-18T14:10:45;16.00;1.00
18690;DHT22;9782;52.930;15.562;2022-10-18T14:13:21;16.00;99.90
18690;DHT22;9782;52.930;15.562;2022-10-18T14:15:51;16.10;1.00
18690;DHT22;9782;52.930;15.562;2022-10-18T14:18:26;16.10;1.00
18690;DHT22;9782;52.930;15.562;2022-10-18T14:21:02;16.10;99.90
18690;DHT22;9782;52.930;15.562;2022-10-18T14:23:34;16.10;99.90
18690;DHT22;9782;52.930;15.562;2022-10-18T14:26:11;16.00;99.90
18690;DHT22;9782;52.930;15.562;2022-10-18T14:28:38;16.00;49.60
18690;DHT22;9782;52.930;15.562;2022-10-18T14:31:11;15.90;1.00
18690;DHT22;9782;52.930;15.562;2022-10-18T14:33:41;16.00;1.00
18690;DHT22;9782;52.930;15.562;2022-10-18T14:36:12;15.90;99.90
18690;DHT22;9782;52.930;15.562;2022-10-18T14:38:48;15.90;99.90
18690;DHT22;9782;52.930;15.562;2022-10-18T14:41:21;15.90;1.00
18690;DHT22;9782;52.930;15.562;2022-10-18T14:43:50;15.90;1.00
18690;DHT22;9782;52.930;15.562;2022-10-18T14:46:21;15.90;1.00
18690;DHT22;9782;52.930;15.562;2022-10-18T14:48:58;15.80;1.00
18690;DHT22;9782;52.930;15.562;2022-10-18T14:51:30;15.80;1.00
18690;DHT22;9782;52.930;15.562;2022-10-18T14:54:08;15.70;1.00
18690;DHT22;9782;52.930;15.562;2022-10-18T14:56:42;15.70;1.00
18690;DHT22;9782;52.930;15.562;2022-10-18T14:59:14;15.70;1.00
18690;DHT22;9782;52.930;15.562;2022-10-18T15:01:50;15.60;1.00
18690;DHT22;9782;52.930;15.562;2022-10-18T15:04:21;15.60;1.00
18690;DHT22;9782;52.930;15.562;2022-10-18T15:06:58;15.50;1.00
18690;DHT22;9782;52.930;15.562;2022-10-18T15:09:26;15.50;1.00
18690;DHT22;9782;52.930;15.562;2022-10-18T15:11:53;15.50;1.00
18690;DHT22;9782;52.930;15.562;2022-10-18T15:14:27;15.40;1.00
18690;DHT22;9782;52.930;15.562;2022-10-18T15:17:02;15.40;1.00
18690;DHT22;9782;52.930;15.562;2022-10-18T15:19:32;15.30;1.00
18690;DHT22;9782;52.930;15.562;2022-10-18T15:22:03;15.30;99.90
18690;DHT22;9782;52.930;15.562;2022-10-18T15:24:32;15.20;45.60
18690;DHT22;9782;52.930;15.562;2022-10-18T15:27:07;15.20;1.00
18690;DHT22;9782;52.930;15.562;2022-10-18T15:29:39;15.10;1.00
18690;DHT22;9782;52.930;15.562;2022-10-18T15:32:24;15.10;1.00
18690;DHT22;9782;52.930;15.562;2022-10-18T15:35:07;15.10;99.90
18690;DHT22;9782;52.930;15.562;2022-10-18T15:37:42;15.10;99.90
18690;DHT22;9782;52.930;15.562;2022-10-18T15:40:34;15.10;1.00
18690;DHT22;9782;52.930;15.562;2022-10-18T15:43:04;15.00;1.00
18690;DHT22;9782;52.930;15.562;2022-10-18T15:45:37;14.90;1.00
18690;DHT22;9782;52.930;15.562;2022-10-18T15:48:21;14.90;1.00
18690;DHT22;9782;52.930;15.562;2022-10-18T15:50:59;14.90;99.90
18690;DHT22;9782;52.930;15.562;2022-10-18T15:53:41;14.80;43.30
18690;DHT22;9782;52.930;15.562;2022-10-18T15:56:27;14.70;99.90
18690;DHT22;9782;52.930;15.562;2022-10-18T15:58:59;14.70;99.90
18690;DHT22;9782;52.930;15.562;2022-10-18T16:01:36;14.60;99.90
18690;DHT22;9782;52.930;15.562;2022-10-18T16:04:21;14.60;1.00
18690;DHT22;9782;52.930;15.562;2022-10-18T16:06:58;14.50;99.90
18690;DHT22;9782;52.930;15.562;2022-10-18T16:09:28;14.40;1.00
18690;DHT22;9782;52.930;15.562;2022-10-18T16:11:59;14.40;1.00
18690;DHT22;9782;52.930;15.562;2022-10-18T16:14:30;14.30;99.90
18690;DHT22;9782;52.930;15.562;2022-10-18T16:17:04;14.20;1.00
18690;DHT22;9782;52.930;15.562;2022-10-18T16:19:49;14.20;1.00
18690;DHT22;9782;52.930;15.562;2022-10-18T16:22:24;14.20;1.00
18690;DHT22;9782;52.930;15.562;2022-10-18T16:25:15;14.10;1.00
18690;DHT22;9782;52.930;15.562;2022-10-18T16:27:52;14.00;99.90
18690;DHT22;9782;52.930;15.562;2022-10-18T16:30:20;14.00;1.00
18690;DHT22;9782;52.930;15.562;2022-10-18T16:32:48;13.90;1.00
18690;DHT22;9782;52.930;15.562;2022-10-18T16:35:15;13.80;1.00
18690;DHT22;9782;52.930;15.562;2022-10-18T16:37:42;13.80;1.00
18690;DHT22;9782;52.930;15.562;2022-10-18T16:40:20;13.70;99.90
18690;DHT22;9782;52.930;15.562;2022-10-18T16:42:48;13.70;99.90
18690;DHT22;9782;52.930;15.562;2022-10-18T16:45:15;13.60;99.90
18690;DHT22;9782;52.930;15.562;2022-10-18T16:47:42;13.60;1.00
18690;DHT22;9782;52.930;15.562;2022-10-18T16:50:13;13.50;1.00
18690;DHT22;9782;52.930;15.562;2022-10-18T16:52:41;13.50;99.90
18690;DHT22;9782;52.930;15.562;2022-10-18T16:55:09;13.50;1.00
18690;DHT22;9782;52.930;15.562;2022-10-18T16:57:48;13.40;1.00
18690;DHT22;9782;52.930;15.562;2022-10-18T17:00:19;13.40;48.80
18690;DHT22;9782;52.930;15.562;2022-10-18T17:02:46;13.30;99.90
18690;DHT22;9782;52.930;15.562;2022-10-18T17:05:14;13.30;99.90
18690;DHT22;9782;52.930;15.562;2022-10-18T17:07:42;13.20;1.00
18690;DHT22;9782;52.930;15.562;2022-10-18T17:10:11;13.10;1.00
18690;DHT22;9782;52.930;15.562;2022-10-18T17:12:39;13.10;1.00
18690;DHT22;9782;52.930;15.562;2022-10-18T17:15:08;13.00;99.90
18690;DHT22;9782;52.930;15.562;2022-10-18T17:17:36;13.00;36.20
18690;DHT22;9782;52.930;15.562;2022-10-18T17:20:05;12.90;1.00
18690;DHT22;9782;52.930;15.562;2022-10-18T17:22:32;12.80;1.00
18690;DHT22;9782;52.930;15.562;2022-10-18T17:25:00;12.80;1.00
18690;DHT22;9782;52.930;15.562;2022-10-18T17:27:26;12.70;99.90
18690;DHT22;9782;52.930;15.562;2022-10-18T17:29:53;12.60;1.00
18690;DHT22;9782;52.930;15.562;2022-10-18T17:32:23;12.60;1.00
18690;DHT22;9782;52.930;15.562;2022-10-18T17:34:50;12.50;99.90
18690;DHT22;9782;52.930;15.562;2022-10-18T17:37:17;12.40;1.00
18690;DHT22;9782;52.930;15.562;2022-10-18T17:39:44;12.40;1.00
18690;DHT22;9782;52.930;15.562;2022-10-18T17:42:11;12.40;99.90
18690;DHT22;9782;52.930;15.562;2022-10-18T17:44:38;12.30;99.90
18690;DHT22;9782;52.930;15.562;2022-10-18T17:47:07;12.20;1.00
18690;DHT22;9782;52.930;15.562;2022-10-18T17:49:35;12.20;1.00
18690;DHT22;9782;52.930;15.562;2022-10-18T17:52:03;12.20;1.00
18690;DHT22;9782;52.930;15.562;2022-10-18T17:54:30;12.20;1.00
18690;DHT22;9782;52.930;15.562;2022-10-18T17:56:57;12.10;95.30
18690;DHT22;9782;52.930;15.562;2022-10-18T17:59:24;12.10;99.90
18690;DHT22;9782;52.930;15.562;2022-10-18T18:01:52;12.10;1.00
18690;DHT22;9782;52.930;15.562;2022-10-18T18:04:19;12.10;1.00
18690;DHT22;9782;52.930;15.562;2022-10-18T18:06:49;12.10;1.00
18690;DHT22;9782;52.930;15.562;2022-10-18T18:09:18;12.00;99.90
18690;DHT22;9782;52.930;15.562;2022-10-18T18:11:45;12.00;99.90
18690;DHT22;9782;52.930;15.562;2022-10-18T18:14:14;12.00;1.00
18690;DHT22;9782;52.930;15.562;2022-10-18T18:16:41;12.00;74.30